Time;durP1;ratioP1;P1;durP2;ratioP2;P2;SDS_P1;SDS_P2;PMS_P1;PMS_P2;Temp;Humidity;BMP_temperature;BMP_pressure;BME280_temperature;BME280_humidity;BME280_pressure;Samples;Min_cycle;Max_cycle;Signal;HPM_P1;HPM_P2
2023/05/12 00:01:29;;;;;;;9.35;2.30;;;;;;;9.03;100.00;101300.59;5038532;28;20041;-79
2023/05/12 00:03:58;;;;;;;9.10;2.40;;;;;;;9.01;100.00;101311.25;5035735;28;20053;-79
2023/05/12 00:06:26;;;;;;;5.00;1.90;;;;;;;8.95;100.00;101311.69;5043957;28;20025;-79
2023/05/12 00:08:54;;;;;;;4.55;2.05;;;;;;;8.96;100.00;101312.53;5037222;28;20486;-80
2023/05/12 00:11:22;;;;;;;4.80;1.88;;;;;;;8.90;100.00;101314.66;5020505;28;20461;-80
2023/05/12 00:13:50;;;;;;;8.30;1.75;;;;;;;8.94;100.00;101312.66;5041238;28;20043;-79
2023/05/12 00:16:18;;;;;;;6.47;1.90;;;;;;;8.93;100.00;101313.59;5024037;28;20524;-79
2023/05/12 00:18:45;;;;;;;4.95;1.50;;;;;;;8.95;100.00;101318.78;5040587;28;20037;-80
2023/05/12 00:21:14;;;;;;;2.30;1.38;;;;;;;8.91;100.00;101324.28;5042005;28;20041;-79
2023/05/12 00:23:44;;;;;;;3.38;1.60;;;;;;;8.94;100.00;101323.19;5030145;28;20477;-79
2023/05/12 00:26:13;;;;;;;7.10;1.83;;;;;;;8.97;100.00;101328.25;5038615;28;20029;-79
2023/05/12 00:28:46;;;;;;;4.63;1.42;;;;;;;8.94;100.00;101328.47;5023979;28;20055;-79
2023/05/12 00:31:16;;;;;;;8.38;2.17;;;;;;;8.90;100.00;101333.09;5043773;28;20105;-79
2023/05/12 00:33:46;;;;;;;7.30;1.52;;;;;;;8.92;100.00;101336.50;5045903;28;20110;-79
2023/05/12 00:36:15;;;;;;;5.60;1.60;;;;;;;8.95;100.00;101338.03;5047507;28;20052;-79
2023/05/12 00:38:45;;;;;;;3.55;1.60;;;;;;;8.97;100.00;101336.16;5026519;28;20128;-79
2023/05/12 00:41:15;;;;;;;6.80;1.63;;;;;;;9.00;100.00;101341.19;5040515;28;20041;-79
2023/05/12 00:43:42;;;;;;;7.30;1.30;;;;;;;8.94;100.00;101344.28;5028462;28;20198;-79
2023/05/12 00:46:10;;;;;;;4.43;2.20;;;;;;;8.93;100.00;101348.72;5046945;28;20033;-79
2023/05/12 00:48:38;;;;;;;8.50;2.53;;;;;;;8.89;100.00;101352.53;5030612;28;20029;-79
2023/05/12 00:51:07;;;;;;;3.72;1.60;;;;;;;8.94;100.00;101344.28;5022697;28;20041;-79
2023/05/12 00:53:35;;;;;;;3.47;1.45;;;;;;;8.92;100.00;101349.66;5046078;28;20033;-79
2023/05/12 00:56:05;;;;;;;5.75;1.55;;;;;;;9.03;100.00;101350.69;5036650;28;20059;-79
2023/05/12 00:58:35;;;;;;;6.30;1.77;;;;;;;9.05;100.00;101348.78;5031448;28;20039;-76
2023/05/12 01:01:05;;;;;;;8.45;1.60;;;;;;;9.10;100.00;101351.06;5048022;28;20029;-76
2023/05/12 01:03:32;;;;;;;2.97;1.20;;;;;;;9.08;100.00;101347.72;5015639;28;20025;-79
2023/05/12 01:06:40;;;;;;;4.85;1.80;;;;;;;9.01;100.00;101348.19;5047923;28;20143;-79
2023/05/12 01:09:10;;;;;;;3.88;1.90;;;;;;;8.83;100.00;101352.13;5025745;28;20045;-79
2023/05/12 01:11:38;;;;;;;6.53;1.95;;;;;;;8.71;100.00;101359.97;5036986;28;20040;-79
2023/05/12 01:14:06;;;;;;;5.22;2.30;;;;;;;8.78;100.00;101360.38;5044567;28;20049;-79
2023/05/12 01:16:40;;;;;;;3.47;2.13;;;;;;;8.81;100.00;101358.34;5048806;28;20037;-79
2023/05/12 01:19:23;;;;;;;4.53;2.25;;;;;;;8.89;100.00;101368.34;5051556;28;20060;-79
2023/05/12 01:21:53;;;;;;;2.95;1.77;;;;;;;8.91;100.00;101365.59;5048784;28;20029;-76
2023/05/12 01:24:25;;;;;;;5.28;2.10;;;;;;;8.97;100.00;101364.31;5032905;28;20106;-76
2023/05/12 01:26:54;;;;;;;2.92;1.85;;;;;;;9.00;100.00;101374.66;5047229;28;20025;-79
2023/05/12 01:29:23;;;;;;;5.20;2.05;;;;;;;9.03;100.00;101372.63;5045577;28;20037;-79
2023/05/12 01:31:53;;;;;;;4.60;2.10;;;;;;;9.06;100.00;101374.22;5034049;28;20112;-79
2023/05/12 01:34:21;;;;;;;7.25;1.70;;;;;;;9.01;100.00;101373.69;5042574;28;20033;-79
2023/05/12 01:36:52;;;;;;;2.78;1.40;;;;;;;9.02;100.00;101370.94;5045085;28;20039;-79
2023/05/12 01:39:20;;;;;;;6.28;1.73;;;;;;;8.97;100.00;101378.34;5046249;28;20501;-80
2023/05/12 01:41:48;;;;;;;5.50;1.70;;;;;;;8.80;100.00;101369.88;5045497;28;20056;-79
2023/05/12 01:44:16;;;;;;;3.85;1.63;;;;;;;8.70;100.00;101366.19;5011111;28;20549;-79
2023/05/12 01:46:43;;;;;;;3.25;1.40;;;;;;;8.75;100.00;101371.97;5019047;28;20166;-79
2023/05/12 01:49:11;;;;;;;4.60;1.42;;;;;;;8.73;100.00;101373.06;5046216;28;20047;-79
2023/05/12 01:51:41;;;;;;;4.60;1.58;;;;;;;8.73;100.00;101376.50;5046572;28;20036;-79
2023/05/12 01:54:12;;;;;;;4.15;1.83;;;;;;;8.77;100.00;101372.72;5030672;28;20114;-79
2023/05/12 01:56:42;;;;;;;3.70;1.52;;;;;;;8.86;100.00;101370.34;5005782;28;20037;-80
2023/05/12 01:59:12;;;;;;;3.17;1.45;;;;;;;8.96;100.00;101373.19;5045219;28;20037;-79
2023/05/12 02:01:42;;;;;;;3.85;1.80;;;;;;;9.04;100.00;101369.06;5031882;28;20028;-79
2023/05/12 02:04:13;;;;;;;1.83;1.65;;;;;;;9.12;100.00;101376.41;5044231;28;20056;-80
2023/05/12 02:06:43;;;;;;;4.47;1.58;;;;;;;9.08;100.00;101367.00;5033812;28;20060;-80
2023/05/12 02:09:14;;;;;;;2.83;1.73;;;;;;;9.02;100.00;101375.38;5049680;28;20036;-80
2023/05/12 02:11:43;;;;;;;5.70;1.65;;;;;;;8.98;100.00;101377.38;5038072;28;20033;-80
2023/05/12 02:14:13;;;;;;;2.10;1.83;;;;;;;8.94;100.00;101378.56;5046417;28;20029;-79
2023/05/12 02:16:43;;;;;;;4.13;1.95;;;;;;;8.92;100.00;101378.69;5029803;28;20137;-80
2023/05/12 02:19:13;;;;;;;3.38;1.85;;;;;;;8.86;100.00;101383.53;5030161;28;20064;-80
2023/05/12 02:21:44;;;;;;;4.25;2.30;;;;;;;8.79;100.00;101394.53;5026639;28;20101;-80
2023/05/12 02:24:12;;;;;;;6.15;2.00;;;;;;;8.68;100.00;101407.63;5012454;28;20126;-80
2023/05/12 02:26:40;;;;;;;2.70;1.73;;;;;;;8.64;100.00;101407.00;5032314;28;20051;-80
2023/05/12 02:29:10;;;;;;;4.90;1.90;;;;;;;8.58;100.00;101407.44;5044627;28;20257;-80
2023/05/12 02:31:37;;;;;;;4.47;2.50;;;;;;;8.63;100.00;101410.56;5048523;28;21254;-79
2023/05/12 02:34:14;;;;;;;9.27;3.05;;;;;;;8.62;100.00;101406.25;5042826;28;20037;-80
2023/05/12 02:36:43;;;;;;;12.32;2.55;;;;;;;8.68;100.00;101411.09;5048825;28;20385;-80
2023/05/12 02:39:12;;;;;;;6.47;2.67;;;;;;;8.66;100.00;101410.34;5046762;28;20033;-80
2023/05/12 02:41:41;;;;;;;5.85;3.00;;;;;;;8.71;100.00;101410.06;5046552;28;20049;-80
2023/05/12 02:44:10;;;;;;;4.38;2.22;;;;;;;8.65;100.00;101411.31;5046530;28;20041;-80
2023/05/12 02:46:38;;;;;;;6.75;2.53;;;;;;;8.58;100.00;101409.22;5048912;28;20104;-80
2023/05/12 02:49:06;;;;;;;7.40;1.77;;;;;;;8.56;100.00;101410.19;5044210;28;20031;-80
2023/05/12 02:51:34;;;;;;;5.78;2.40;;;;;;;8.58;100.00;101417.97;5044044;28;20025;-80
2023/05/12 02:54:02;;;;;;;5.40;2.10;;;;;;;8.52;100.00;101408.66;5048593;28;20079;-80
2023/05/12 02:56:30;;;;;;;11.77;2.67;;;;;;;8.56;100.00;101401.44;5020211;28;20041;-79
2023/05/12 02:58:57;;;;;;;6.15;2.90;;;;;;;8.61;100.00;101403.72;5038759;28;20040;-80
2023/05/12 03:01:25;;;;;;;4.45;2.70;;;;;;;8.70;100.00;101408.34;5039542;28;20128;-77
2023/05/12 03:03:53;;;;;;;5.70;2.33;;;;;;;8.67;100.00;101413.84;5050881;28;20029;-76
2023/05/12 03:06:23;;;;;;;4.40;1.70;;;;;;;8.59;100.00;101417.03;5033216;28;20037;-80
2023/05/12 03:08:51;;;;;;;2.00;1.17;;;;;;;8.44;100.00;101422.38;5043031;28;20040;-80
2023/05/12 03:11:19;;;;;;;5.15;1.70;;;;;;;8.43;100.00;101423.34;5025387;28;20030;-80
2023/05/12 03:13:46;;;;;;;1.98;1.25;;;;;;;8.39;100.00;101428.91;5033662;28;20029;-80
2023/05/12 03:16:16;;;;;;;1.75;1.33;;;;;;;8.44;100.00;101422.38;5046770;28;20167;-80
2023/05/12 03:18:43;;;;;;;3.55;2.30;;;;;;;8.46;100.00;101417.00;5048675;28;20028;-80
2023/05/12 03:21:12;;;;;;;3.55;2.63;;;;;;;8.55;100.00;101420.84;5048502;28;20037;-80
2023/05/12 03:23:39;;;;;;;2.80;2.25;;;;;;;8.61;100.00;101423.03;5040485;28;20033;-80
2023/05/12 03:26:09;;;;;;;5.00;2.92;;;;;;;8.69;100.00;101422.50;5007552;28;20120;-80
2023/05/12 03:28:39;;;;;;;4.28;3.10;;;;;;;8.64;100.00;101429.88;5038048;28;20056;-80
2023/05/12 03:31:09;;;;;;;4.10;1.65;;;;;;;8.61;100.00;101430.09;5041663;28;20516;-80
2023/05/12 03:33:38;;;;;;;25.70;1.80;;;;;;;8.52;100.00;101432.38;5007625;28;20072;-77
2023/05/12 03:36:06;;;;;;;4.00;1.75;;;;;;;8.55;100.00;101434.00;5008257;28;20599;-77
2023/05/12 03:38:35;;;;;;;6.20;2.28;;;;;;;8.54;100.00;101430.53;5011405;28;20045;-80
2023/05/12 03:41:04;;;;;;;6.53;1.90;;;;;;;8.62;100.00;101432.63;5025121;28;20466;-80
2023/05/12 03:43:32;;;;;;;4.68;1.70;;;;;;;8.64;100.00;101437.78;5025781;28;20103;-80
2023/05/12 03:46:00;;;;;;;3.72;2.20;;;;;;;8.65;100.00;101431.53;5030857;28;20087;-80
2023/05/12 03:48:29;;;;;;;4.65;1.60;;;;;;;8.60;100.00;101439.78;5050744;28;20061;-79
2023/05/12 03:50:56;;;;;;;111.97;3.28;;;;;;;8.53;100.00;101435.88;5032425;28;20029;-79
2023/05/12 03:53:25;;;;;;;25.48;1.35;;;;;;;8.40;100.00;101441.13;5039587;28;20037;-80
2023/05/12 03:55:52;;;;;;;6.00;1.92;;;;;;;8.42;100.00;101452.41;5031998;28;20048;-80
2023/05/12 03:58:23;;;;;;;1.55;1.33;;;;;;;8.39;100.00;101448.19;5030288;28;20036;-80
2023/05/12 04:00:50;;;;;;;4.43;1.33;;;;;;;8.38;100.00;101453.56;5044633;28;20041;-79
2023/05/12 04:03:18;;;;;;;1.90;1.45;;;;;;;8.36;100.00;101452.84;5042631;28;20032;-80
2023/05/12 04:05:46;;;;;;;3.28;1.50;;;;;;;8.40;100.00;101446.41;5046507;28;20680;-80
2023/05/12 04:08:14;;;;;;;3.65;2.47;;;;;;;8.39;100.00;101455.25;5038188;28;20393;-80
2023/05/12 04:10:42;;;;;;;4.35;1.92;;;;;;;8.39;100.00;101453.44;5029077;28;20471;-80
2023/05/12 04:13:09;;;;;;;1.20;1.02;;;;;;;8.37;100.00;101460.63;5029188;28;20045;-80
2023/05/12 04:15:37;;;;;;;3.63;1.20;;;;;;;8.41;100.00;101463.88;5034117;28;20026;-80
2023/05/12 04:18:06;;;;;;;1.73;1.35;;;;;;;8.40;100.00;101467.47;5043832;28;20044;-80
2023/05/12 04:20:34;;;;;;;0.90;0.85;;;;;;;8.42;100.00;101466.44;5045642;28;20482;-79
2023/05/12 04:23:02;;;;;;;5.00;1.40;;;;;;;8.31;100.00;101469.78;5043706;28;20067;-80
2023/05/12 04:25:29;;;;;;;18.33;1.10;;;;;;;8.34;100.00;101483.69;5048894;28;20064;-80
2023/05/12 04:27:57;;;;;;;1.38;0.95;;;;;;;8.29;100.00;101490.13;5043059;28;20029;-80
2023/05/12 04:30:25;;;;;;;6.85;1.02;;;;;;;8.29;100.00;101484.88;5044154;28;20593;-80
2023/05/12 04:32:54;;;;;;;14.05;1.38;;;;;;;8.25;100.00;101493.09;5041435;28;20054;-80
2023/05/12 04:35:21;;;;;;;1.60;1.20;;;;;;;8.16;100.00;101492.75;5045254;28;20052;-80
2023/05/12 04:37:51;;;;;;;2.92;1.83;;;;;;;8.23;100.00;101497.59;5042663;28;20558;-80
2023/05/12 04:40:18;;;;;;;2.95;2.25;;;;;;;8.22;100.00;101499.38;5041505;28;20036;-80
2023/05/12 04:42:46;;;;;;;5.00;2.30;;;;;;;8.26;100.00;101500.88;5047978;28;20116;-80
2023/05/12 04:45:15;;;;;;;2.00;1.25;;;;;;;8.26;100.00;101506.16;5028918;28;20030;-80
2023/05/12 04:47:44;;;;;;;1.75;1.00;;;;;;;8.22;100.00;101509.91;5023815;28;20039;-80
2023/05/12 04:50:11;;;;;;;7.38;2.30;;;;;;;8.21;100.00;101505.59;5043664;28;20057;-80
2023/05/12 04:52:40;;;;;;;5.70;2.40;;;;;;;8.26;100.00;101510.56;5046819;28;20041;-80
2023/05/12 04:55:07;;;;;;;38.95;2.22;;;;;;;8.31;100.00;101514.56;5042259;28;20060;-80
2023/05/12 04:57:36;;;;;;;1.20;1.10;;;;;;;8.25;100.00;101514.16;5027582;28;20024;-80
2023/05/12 05:00:04;;;;;;;1.52;1.42;;;;;;;8.23;100.00;101514.25;5026103;28;20029;-80
2023/05/12 05:02:34;;;;;;;5.00;1.30;;;;;;;8.18;100.00;101511.06;5028068;28;20362;-80
2023/05/12 05:05:00;;;;;;;1.95;1.50;;;;;;;8.26;100.00;101513.19;5046571;28;20032;-80
2023/05/12 05:07:30;;;;;;;1.30;1.20;;;;;;;8.25;100.00;101522.06;5029306;28;20490;-79
2023/05/12 05:09:58;;;;;;;1.35;1.25;;;;;;;8.29;100.00;101526.16;5045040;28;20493;-80
2023/05/12 05:12:27;;;;;;;1.67;1.13;;;;;;;8.30;100.00;101522.56;5026871;28;20065;-80
2023/05/12 05:14:54;;;;;;;3.00;1.35;;;;;;;8.19;100.00;101529.41;5040391;28;20056;-80
2023/05/12 05:17:24;;;;;;;4.10;1.30;;;;;;;8.11;100.00;101531.69;5040839;28;20198;-80
2023/05/12 05:19:50;;;;;;;4.25;0.90;;;;;;;8.11;100.00;101536.09;5038923;28;20404;-80
2023/05/12 05:22:20;;;;;;;1.52;0.80;;;;;;;8.09;100.00;101541.47;5025747;28;20108;-80
2023/05/12 05:24:46;;;;;;;2.15;0.95;;;;;;;8.13;100.00;101550.03;5039212;28;20056;-80
2023/05/12 05:27:15;;;;;;;4.32;0.82;;;;;;;8.10;100.00;101548.44;5034668;28;20736;-80
2023/05/12 05:29:42;;;;;;;1.42;0.82;;;;;;;8.11;100.00;101557.19;5026968;28;20511;-80
2023/05/12 05:32:11;;;;;;;1.15;1.05;;;;;;;8.09;100.00;101551.19;5042290;28;20048;-80
2023/05/12 05:34:38;;;;;;;6.20;1.20;;;;;;;8.17;100.00;101559.44;5012528;28;20033;-80
2023/05/12 05:37:08;;;;;;;2.35;1.17;;;;;;;8.17;100.00;101568.16;5045326;28;20060;-77
2023/05/12 05:39:36;;;;;;;1.30;1.17;;;;;;;8.24;100.00;101559.84;5047586;28;20440;-77
2023/05/12 05:42:06;;;;;;;1.60;1.50;;;;;;;8.24;100.00;101563.34;5041312;28;20057;-80
2023/05/12 05:44:35;;;;;;;1.80;1.70;;;;;;;8.26;100.00;101561.47;5024971;28;20037;-80
2023/05/12 05:47:04;;;;;;;1.85;1.75;;;;;;;8.25;100.00;101565.03;5035206;28;20025;-80
2023/05/12 05:49:31;;;;;;;2.78;2.45;;;;;;;8.24;100.00;101567.75;5023645;28;20087;-80
2023/05/12 05:52:01;;;;;;;2.47;2.00;;;;;;;8.29;100.00;101574.44;5017016;28;20040;-80
2023/05/12 05:54:29;;;;;;;3.47;2.30;;;;;;;8.39;100.00;101579.09;5029392;28;20056;-80
2023/05/12 05:57:00;;;;;;;4.18;2.33;;;;;;;8.45;100.00;101581.31;5014470;28;20143;-80
2023/05/12 05:59:29;;;;;;;1.88;1.20;;;;;;;8.50;100.00;101578.38;5044461;28;20063;-80
2023/05/12 06:01:56;;;;;;;1.30;1.10;;;;;;;8.50;100.00;101581.84;5043055;28;20037;-80
2023/05/12 06:04:24;;;;;;;2.28;1.10;;;;;;;8.54;100.00;101582.47;5041790;28;20033;-80
2023/05/12 06:06:52;;;;;;;1.35;1.27;;;;;;;8.57;100.00;101582.28;5033835;28;20063;-79
2023/05/12 06:09:20;;;;;;;1.88;1.05;;;;;;;8.70;100.00;101587.59;5024497;28;20044;-80
2023/05/12 06:11:50;;;;;;;4.90;1.40;;;;;;;8.70;100.00;101590.22;5041049;28;20055;-80
2023/05/12 06:14:17;;;;;;;4.07;1.20;;;;;;;8.68;100.00;101600.03;5029787;28;20033;-80
2023/05/12 06:16:46;;;;;;;3.42;1.23;;;;;;;8.69;100.00;101597.28;5040512;28;20549;-80
2023/05/12 06:19:14;;;;;;;2.50;1.77;;;;;;;8.82;100.00;101596.47;5030396;28;20040;-81
2023/05/12 06:21:43;;;;;;;2.28;1.92;;;;;;;8.89;100.00;101599.53;5048321;28;20358;-80
2023/05/12 06:24:12;;;;;;;3.25;1.67;;;;;;;9.04;100.00;101602.91;5024023;28;20496;-80
2023/05/12 06:26:42;;;;;;;2.10;1.88;;;;;;;9.09;100.00;101607.88;5019433;28;20029;-80
2023/05/12 06:29:10;;;;;;;3.80;1.65;;;;;;;9.17;100.00;101614.28;5048230;28;20044;-80
2023/05/12 06:31:38;;;;;;;3.28;1.92;;;;;;;9.27;100.00;101617.16;5046613;28;20045;-80
2023/05/12 06:34:06;;;;;;;3.13;1.90;;;;;;;9.38;100.00;101621.66;5048794;28;20032;-81
2023/05/12 06:36:34;;;;;;;7.88;2.90;;;;;;;9.46;100.00;101623.78;5026615;28;20445;-81
2023/05/12 06:39:03;;;;;;;5.65;2.65;;;;;;;9.47;100.00;101625.47;5032375;28;20033;-80
2023/05/12 06:41:32;;;;;;;9.30;3.28;;;;;;;9.47;100.00;101627.25;5019903;28;20076;-80
2023/05/12 06:44:01;;;;;;;6.75;3.92;;;;;;;9.46;100.00;101626.41;5026258;28;20032;-80
2023/05/12 06:46:29;;;;;;;7.00;3.88;;;;;;;9.42;100.00;101631.06;5046385;28;20037;-81
2023/05/12 06:48:56;;;;;;;5.88;3.83;;;;;;;9.52;100.00;101631.25;5032802;28;20029;-80
2023/05/12 06:51:26;;;;;;;8.85;3.88;;;;;;;9.56;100.00;101639.81;5048207;28;20043;-81
2023/05/12 06:53:52;;;;;;;7.50;4.45;;;;;;;9.57;100.00;101638.88;5048530;28;20029;-80
2023/05/12 06:56:23;;;;;;;7.35;3.72;;;;;;;9.63;100.00;101641.09;5026052;28;20069;-80
2023/05/12 06:58:59;;;;;;;4.95;3.45;;;;;;;9.65;100.00;101638.34;5041873;28;20040;-80
2023/05/12 07:01:29;;;;;;;7.10;3.97;;;;;;;9.70;100.00;101644.09;5045760;28;20036;-80
2023/05/12 07:03:58;;;;;;;10.13;4.32;;;;;;;9.71;100.00;101643.19;5050325;28;20576;-80
2023/05/12 07:06:26;;;;;;;4.97;3.67;;;;;;;9.79;100.00;101646.09;5047073;28;20037;-80
2023/05/12 07:08:55;;;;;;;4.82;4.05;;;;;;;9.84;100.00;101642.28;5072192;28;20390;-81
2023/05/12 07:11:22;;;;;;;5.72;4.47;;;;;;;9.93;100.00;101646.91;5033794;28;20040;-81
2023/05/12 07:13:50;;;;;;;8.20;4.07;;;;;;;9.98;100.00;101644.78;5048136;28;20493;-81
2023/05/12 07:16:19;;;;;;;6.78;4.15;;;;;;;10.12;100.00;101643.78;5036250;28;20040;-81
2023/05/12 07:18:47;;;;;;;9.75;4.55;;;;;;;10.32;100.00;101648.56;5038122;28;20053;-81
2023/05/12 07:21:14;;;;;;;7.15;4.70;;;;;;;10.58;100.00;101645.81;5030791;28;20036;-78
2023/05/12 07:23:42;;;;;;;8.52;4.93;;;;;;;10.82;100.00;101653.72;5042522;28;20504;-77
2023/05/12 07:26:10;;;;;;;7.72;4.05;;;;;;;11.17;100.00;101651.97;5038171;28;20048;-77
2023/05/12 07:28:38;;;;;;;7.20;4.70;;;;;;;11.47;100.00;101652.34;5019773;28;20597;-81
2023/05/12 07:31:07;;;;;;;5.80;4.18;;;;;;;11.82;100.00;101650.56;5054042;28;20079;-81
2023/05/12 07:33:36;;;;;;;8.48;4.20;;;;;;;11.99;100.00;101652.66;5042610;28;20033;-80
2023/05/12 07:36:04;;;;;;;5.70;4.47;;;;;;;12.21;100.00;101653.63;5041352;28;20033;-80
2023/05/12 07:38:31;;;;;;;4.80;3.97;;;;;;;12.32;100.00;101657.19;5043826;28;20636;-81
2023/05/12 07:41:03;;;;;;;8.45;4.35;;;;;;;12.36;100.00;101661.28;5047189;28;20033;-81
2023/05/12 07:43:32;;;;;;;7.82;3.72;;;;;;;12.30;100.00;101661.75;5038425;28;20033;-81
2023/05/12 07:46:01;;;;;;;3.67;3.33;;;;;;;12.05;100.00;101661.94;5045366;28;20108;-81
2023/05/12 07:48:29;;;;;;;7.00;4.07;;;;;;;11.97;100.00;101669.66;5048356;28;20024;-80
2023/05/12 07:50:57;;;;;;;6.90;4.00;;;;;;;12.07;100.00;101667.94;5027363;28;20367;-81
2023/05/12 07:53:25;;;;;;;5.55;4.47;;;;;;;12.02;100.00;101672.78;5040831;28;20033;-81
2023/05/12 07:55:53;;;;;;;8.30;4.32;;;;;;;12.04;100.00;101665.53;5046217;28;20041;-80
2023/05/12 07:58:21;;;;;;;8.35;4.97;;;;;;;11.94;100.00;101675.22;5047542;28;20441;-81
2023/05/12 08:00:49;;;;;;;9.13;4.30;;;;;;;11.91;100.00;101671.81;5030375;28;20112;-81
2023/05/12 08:03:16;;;;;;;8.13;5.13;;;;;;;11.83;100.00;101673.41;5044677;28;20505;-80
2023/05/12 08:05:46;;;;;;;6.75;5.43;;;;;;;11.89;100.00;101675.56;5060049;28;20063;-81
2023/05/12 08:08:15;;;;;;;9.73;5.18;;;;;;;11.81;100.00;101670.88;5044875;28;20029;-80
2023/05/12 08:10:43;;;;;;;6.97;4.90;;;;;;;11.74;100.00;101670.53;5029577;28;20485;-80
2023/05/12 08:13:11;;;;;;;5.85;4.90;;;;;;;11.63;100.00;101679.31;5041184;28;20583;-80
2023/05/12 08:15:39;;;;;;;9.80;5.90;;;;;;;11.55;100.00;101676.44;5044533;28;20034;-80
2023/05/12 08:18:07;;;;;;;6.35;4.78;;;;;;;11.51;100.00;101675.84;5043174;28;20107;-80
2023/05/12 08:20:35;;;;;;;11.48;5.47;;;;;;;11.27;100.00;101682.09;5021517;28;20036;-81
2023/05/12 08:23:05;;;;;;;7.43;4.90;;;;;;;11.08;100.00;101685.28;5046365;28;20537;-81
2023/05/12 08:25:36;;;;;;;9.93;5.03;;;;;;;11.00;100.00;101685.88;5043018;28;20029;-80
2023/05/12 08:28:05;;;;;;;8.07;5.43;;;;;;;10.93;100.00;101689.94;5047051;28;20840;-80
2023/05/12 08:30:34;;;;;;;7.53;5.15;;;;;;;10.78;100.00;101684.00;5041067;28;20215;-80
2023/05/12 08:33:03;;;;;;;7.72;5.78;;;;;;;10.72;100.00;101680.00;5041546;28;20364;-81
2023/05/12 08:35:31;;;;;;;7.68;5.95;;;;;;;10.67;100.00;101688.28;5020970;28;20076;-80
2023/05/12 08:38:00;;;;;;;6.20;5.57;;;;;;;10.73;100.00;101691.44;5036163;28;20067;-80
2023/05/12 08:40:34;;;;;;;6.25;5.40;;;;;;;10.75;100.00;101689.53;5037205;28;20102;-80
2023/05/12 08:43:11;;;;;;;8.25;5.20;;;;;;;10.69;100.00;101690.81;5045993;28;20082;-80
2023/05/12 08:45:41;;;;;;;10.77;5.88;;;;;;;10.71;100.00;101696.84;5039981;28;20086;-79
2023/05/12 08:48:12;;;;;;;6.78;5.05;;;;;;;10.80;100.00;101700.59;5032355;28;20511;-80
2023/05/12 08:50:41;;;;;;;6.65;5.95;;;;;;;10.81;100.00;101702.28;5044253;28;20566;-78
2023/05/12 08:53:13;;;;;;;10.73;6.78;;;;;;;10.89;100.00;101699.06;5046083;28;20824;-78
2023/05/12 08:55:42;;;;;;;8.40;6.75;;;;;;;10.92;100.00;101701.47;5042125;28;20042;-78
2023/05/12 08:58:11;;;;;;;9.43;6.80;;;;;;;11.08;100.00;101703.81;5042254;28;20051;-78
2023/05/12 09:00:40;;;;;;;8.60;6.18;;;;;;;11.16;100.00;101708.53;5032122;28;20389;-79
2023/05/12 09:03:08;;;;;;;11.00;6.35;;;;;;;11.33;100.00;101709.03;5043402;28;20032;-78
2023/05/12 09:05:36;;;;;;;8.02;6.30;;;;;;;11.28;100.00;101709.38;5039836;28;20318;-78
2023/05/12 09:08:09;;;;;;;7.80;5.97;;;;;;;11.33;100.00;101701.06;5042516;28;20040;-78
2023/05/12 09:10:39;;;;;;;10.35;6.07;;;;;;;11.27;100.00;101711.19;5041141;28;20483;-78
2023/05/12 09:13:34;;;;;;;8.85;6.68;;;;;;;11.41;100.00;101715.44;5035978;28;20037;-79
2023/05/12 09:16:04;;;;;;;10.80;6.72;;;;;;;11.48;100.00;101718.41;5042689;28;20029;-77
2023/05/12 09:18:59;;;;;;;7.07;5.80;;;;;;;11.54;100.00;101714.47;5037304;28;20584;-79
2023/05/12 09:21:28;;;;;;;8.38;5.15;;;;;;;11.51;100.00;101720.84;5034336;28;20042;-78
2023/05/12 09:24:05;;;;;;;7.55;5.65;;;;;;;11.62;100.00;101716.53;5041903;28;20036;-77
2023/05/12 09:26:51;;;;;;;5.70;4.85;;;;;;;11.73;100.00;101718.31;5040157;28;20036;-77
2023/05/12 09:29:21;;;;;;;11.45;5.75;;;;;;;12.00;100.00;101711.81;5044839;28;20068;-78
2023/05/12 09:31:57;;;;;;;9.30;6.25;;;;;;;12.24;100.00;101718.78;5042428;28;20042;-78
2023/05/12 09:34:31;;;;;;;7.97;5.57;;;;;;;12.35;100.00;101710.81;5043887;28;20090;-78
2023/05/12 09:37:02;;;;;;;7.85;5.93;;;;;;;12.56;100.00;101712.69;5043934;28;20103;-78
2023/05/12 09:39:31;;;;;;;8.10;5.75;;;;;;;12.75;100.00;101712.00;5045143;28;20198;-78
2023/05/12 09:42:00;;;;;;;7.57;5.50;;;;;;;12.72;100.00;101709.63;5042235;28;20633;-78
2023/05/12 09:44:32;;;;;;;7.57;5.40;;;;;;;12.73;100.00;101719.25;5050428;28;20037;-78
2023/05/12 09:47:09;;;;;;;5.55;5.00;;;;;;;12.93;100.00;101718.56;5048459;28;20033;-78
2023/05/12 09:49:37;;;;;;;;;;;;;;;12.83;100.00;101715.81;5039587;28;20055;-79
2023/05/12 09:52:04;;;;;;;5.97;4.80;;;;;;;12.83;100.00;101716.69;5044644;28;19917;-79
2023/05/12 09:54:33;;;;;;;6.68;4.70;;;;;;;12.86;100.00;101719.06;5049802;28;20060;-78
2023/05/12 09:57:04;;;;;;;9.07;5.38;;;;;;;12.98;100.00;101727.81;5048486;28;20045;-78
2023/05/12 09:59:37;;;;;;;5.63;4.40;;;;;;;13.03;100.00;101719.44;5047296;28;20033;-78
2023/05/12 10:02:08;;;;;;;8.20;4.70;;;;;;;12.96;100.00;101721.81;5049145;28;20060;-78
2023/05/12 10:04:50;;;;;;;5.93;5.15;;;;;;;13.07;100.00;101726.22;5047480;28;20037;-78
2023/05/12 10:07:25;;;;;;;6.28;5.03;;;;;;;13.27;100.00;101718.34;5044325;28;20509;-78
2023/05/12 10:09:56;;;;;;;5.95;4.60;;;;;;;13.37;100.00;101719.25;5047692;28;20381;-78
2023/05/12 10:12:24;;;;;;;8.18;4.75;;;;;;;13.37;100.00;101713.94;4984504;28;20651;-76
2023/05/12 10:14:53;;;;;;;6.22;4.10;;;;;;;13.40;100.00;101719.00;5047162;28;20041;-76
2023/05/12 10:17:23;;;;;;;10.15;4.68;;;;;;;13.48;100.00;101721.00;5049232;28;20029;-78
2023/05/12 10:19:52;;;;;;;6.38;3.90;;;;;;;13.66;100.00;101722.22;5049933;28;20389;-78
2023/05/12 10:22:22;;;;;;;7.55;4.15;;;;;;;13.91;100.00;101720.91;5048991;28;20113;-79
2023/05/12 10:24:51;;;;;;;4.60;3.60;;;;;;;13.83;100.00;101720.75;5050516;28;20033;-78
2023/05/12 10:27:21;;;;;;;5.45;3.42;;;;;;;13.94;100.00;101718.00;5047925;28;20033;-79
2023/05/12 10:29:49;;;;;;;4.10;3.38;;;;;;;14.02;100.00;101723.47;5046121;28;20036;-78
2023/05/12 10:32:18;;;;;;;8.05;3.70;;;;;;;14.07;100.00;101723.06;5039104;28;20033;-78
2023/05/12 10:34:46;;;;;;;6.28;3.67;;;;;;;14.20;100.00;101720.16;5044769;28;20033;-78
2023/05/12 10:37:14;;;;;;;7.00;4.00;;;;;;;14.52;100.00;101728.88;5044799;28;20068;-79
2023/05/12 10:39:50;;;;;;;4.05;3.17;;;;;;;14.68;100.00;101730.16;5050442;28;20029;-79
2023/05/12 10:42:24;;;;;;;4.00;2.65;;;;;;;14.76;100.00;101724.97;5051421;28;20032;-79
2023/05/12 10:44:55;;;;;;;6.40;2.75;;;;;;;14.71;100.00;101729.88;5041660;28;20542;-79
2023/05/12 10:47:35;;;;;;;6.50;2.65;;;;;;;14.59;100.00;101731.81;5048831;28;20128;-78
2023/05/12 10:50:06;;;;;;;6.38;2.30;;;;;;;14.43;100.00;101732.38;5050249;28;20032;-78
2023/05/12 10:52:35;;;;;;;4.53;2.25;;;;;;;14.34;100.00;101732.22;5046775;28;20033;-78
2023/05/12 10:55:04;;;;;;;8.25;2.53;;;;;;;14.36;100.00;101724.97;5044665;28;20045;-78
2023/05/12 10:57:32;;;;;;;7.10;1.90;;;;;;;14.33;100.00;101729.69;5036414;28;20067;-79
2023/05/12 11:00:00;;;;;;;3.45;2.03;;;;;;;14.32;100.00;101731.50;5040683;28;20111;-78
2023/05/12 11:02:31;;;;;;;7.25;2.90;;;;;;;14.49;100.00;101723.84;5032582;28;20064;-79
2023/05/12 11:05:02;;;;;;;4.75;2.38;;;;;;;14.49;100.00;101732.66;5038599;28;20033;-78
2023/05/12 11:07:33;;;;;;;5.07;2.83;;;;;;;14.42;100.00;101726.22;5029078;28;20029;-79
2023/05/12 11:10:04;;;;;;;3.30;2.25;;;;;;;14.54;100.00;101724.25;5040960;28;20029;-78
2023/05/12 11:12:36;;;;;;;3.67;2.15;;;;;;;14.76;100.00;101722.31;5048599;28;20039;-78
2023/05/12 11:15:06;;;;;;;6.80;1.98;;;;;;;15.02;100.00;101712.94;5031462;28;20044;-78
2023/05/12 11:17:40;;;;;;;4.63;1.45;;;;;;;15.21;100.00;101712.88;5050400;28;20037;-78
2023/05/12 11:20:10;;;;;;;4.45;1.50;;;;;;;15.35;100.00;101719.56;5035567;28;20037;-78
2023/05/12 11:22:42;;;;;;;5.07;1.60;;;;;;;15.56;100.00;101715.88;5049224;28;20028;-78
2023/05/12 11:25:11;;;;;;;3.80;1.25;;;;;;;15.61;100.00;101713.59;5045472;28;20041;-78
2023/05/12 11:27:42;;;;;;;2.97;1.10;;;;;;;15.79;100.00;101715.50;5042809;28;20114;-78
2023/05/12 11:30:10;;;;;;;3.78;1.23;;;;;;;15.85;100.00;101708.72;5043188;28;20037;-78
2023/05/12 11:32:37;;;;;;;4.85;1.65;;;;;;;16.03;100.00;101715.97;5041553;28;20056;-78